Latest Coastal Weather Observations for Cape Otway

IDV60701

Issued at 11:51 pm EST Friday 14 August 2020 (issued every 10 minutes, with the page automatically refreshed every 10 minutes)

About coastal observations | Map of coastal stations | Coastal observations for VIC | Marine services | Other Formats
Station Details ID: 090015 Name: CAPE OTWAY LIGHTHOUSE Lat: -38.86 Lon: 143.51 Height: 82.0 m
Data from the previous 72 hours. | See also: Recent months at Cape Otway
Date/Time
EST
Wind Sea
Height
m
Swell Vis
km
Cloud Weather Temp
°C
Press
hPa
Rain since
9am
mm
Dir  Spd
kts
Gust
kts
Height
m
Period
s
Dir
14/11:30pm WNW 6 10 - - - - - - - 11.6 1012.3 0.6
14/11:00pm N 8 9 - - - - - - - 10.8 1012.1 0.6
14/10:30pm NNE 11 13 - - - - - - - 11.2 1012.2 0.6
14/10:00pm NNE 10 13 - - - - - - - 11.2 1012.2 0.6
14/09:30pm NNE 12 16 - - - - - - - 11.4 1012.1 0.4
14/09:00pm N 11 18 - - - - - - - 12.6 1012.1 0.0
14/08:30pm N 10 12 - - - - - - - 12.1 1012.0 0.0
14/08:00pm N 7 9 - - - - - - - 11.4 1011.7 0.0
14/07:30pm N 7 8 - - - - - - - 11.6 1011.5 0.0
14/07:00pm N 6 8 - - - - - - - 12.2 1011.2 0.0
14/06:30pm N 6 8 - - - - - - - 12.4 1011.0 0.0
14/06:00pm NNE 6 7 - - - - - - - 13.2 1010.7 0.0
14/05:30pm NE 5 7 - - - - - - - 14.3 1010.6 0.0
14/05:00pm ENE 5 6 - - - - - - - 14.9 1010.3 0.0
14/04:30pm ENE 7 9 - - - - - - - 14.4 1010.0 0.0
14/04:00pm E 5 6 - - - - - - - 14.4 1010.2 0.0
14/03:30pm ESE 5 7 - - - - - - - 15.8 1010.2 0.0
14/03:00pm SW 5 6 - - - - - - - 16.3 1010.1 0.0
14/02:30pm WSW 3 5 - - - - - - - 15.4 1010.2 0.0
14/02:00pm NW 6 10 - - - - - - - 16.9 1010.1 0.0
14/01:30pm N 6 11 - - - - - - - 17.6 1010.3 0.0
14/01:00pm NNW 9 14 - - - - - - - 16.5 1010.7 0.0
14/12:30pm NNW 6 13 - - - - - - - 16.2 1010.9 0.0
14/12:00pm N 7 11 - - - - - - - 16.1 1011.2 0.0
14/11:30am N 7 13 - - - - - - - 16.1 1011.4 0.0
14/11:00am NNE 7 12 - - - - - - - 14.4 1011.5 0.0
14/10:30am N 7 11 - - - - - - - 13.9 1011.6 0.0
14/10:00am N 7 11 - - - - - - - 13.1 1011.6 0.0
14/09:30am N 8 13 - - - - - - - 12.6 1011.5 0.0
14/09:00am N 8 11 - - - - - - - 12.3 1011.3 0.0
14/08:30am N 10 13 - - - - - - - 11.8 1011.0 0.0
14/08:00am NNE 10 13 - - - - - - - 11.5 1010.8 0.0
14/07:30am NNE 10 13 - - - - - - - 11.4 1010.5 0.0
14/07:00am NE 8 10 - - - - - - - 11.1 1010.4 0.0
14/06:30am NNE 6 9 - - - - - - - 11.3 1010.3 0.0
14/06:00am NNE 5 9 - - - - - - - 11.2 1009.9 0.0
14/05:30am NNE 7 9 - - - - - - - 10.9 1009.9 0.0
14/05:00am ENE 4 5 - - - - - - - 10.7 1009.8 0.0
14/04:30am ENE 3 5 - - - - - - - 11.0 1009.8 0.0
14/04:00am ENE 5 7 - - - - - - - 11.4 1009.7 0.0
14/03:30am ENE 7 8 - - - - - - - 10.8 1009.9 0.0
14/03:00am E 4 5 - - - - - - - 11.0 1010.0 0.0
14/02:30am NNE 3 4 - - - - - - - 11.4 1010.1 0.0
14/02:00am N 6 8 - - - - - - - 12.2 1010.2 0.0
14/01:30am N 7 9 - - - - - - - 12.4 1010.2 0.0
14/01:00am NNW 10 15 - - - - - - - 12.9 1010.3 0.0
14/12:30am NNW 8 11 - - - - - - - 12.8 1010.4 0.0
14/12:00am N 7 11 - - - - - - - 12.6 1010.6 0.0
 
Date/Time
EST
Wind Sea
Height
m
Swell Vis
km
Cloud Weather Temp
°C
Press
hPa
Rain since
9am
mm
Dir  Spd
kts
Gust
kts
Height
m
Period
s
Dir
13/11:30pm N 9 13 - - - - - - - 13.1 1010.6 0.0
13/11:00pm N 9 13 - - - - - - - 13.3 1010.6 0.0
13/10:30pm N 10 15 - - - - - - - 13.5 1010.6 0.0
13/10:00pm N 9 13 - - - - - - - 13.6 1010.6 0.0
13/09:30pm N 9 12 - - - - - - - 13.6 1010.5 0.0
13/09:00pm NNE 7 10 - - - - - - - 13.2 1010.4 0.0
13/08:30pm NE 7 8 - - - - - - - 12.4 1010.2 0.0
13/08:00pm NNE 7 9 - - - - - - - 12.6 1009.9 0.0
13/07:30pm NNE 7 10 - - - - - - - 13.2 1009.6 0.0
13/07:00pm NNE 7 9 - - - - - - - 13.0 1009.4 0.0
13/06:30pm NNE 6 8 - - - - - - - 12.8 1009.3 0.0
13/06:00pm NE 4 6 - - - - - - - 13.5 1008.9 0.0
13/05:30pm NNE 5 6 - - - - - - - 14.9 1008.7 0.0
13/05:00pm NNE 4 7 - - - - - - - 15.2 1008.5 0.0
13/04:30pm N 7 11 - - - - - - - 15.4 1008.4 0.0
13/04:00pm N 7 10 - - - - - - - 15.5 1008.5 0.0
13/03:30pm ENE 7 8 - - - - - - - 14.8 1008.6 0.0
13/03:00pm NE 5 7 - - - - - - - 16.4 1008.7 0.0
13/02:30pm NNW 6 10 - - - - - - - 15.9 1008.7 0.0
13/02:00pm NW 5 8 - - - - - - - 16.2 1008.4 0.0
13/01:30pm NNW 9 13 - - - - - - - 17.2 1008.4 0.0
13/01:00pm N 8 15 - - - - - - - 17.1 1008.5 0.0
13/12:30pm NW 8 12 - - - - - - - 16.0 1008.9 0.0
13/12:00pm NNW 8 12 - - - - - - - 16.2 1009.3 0.0
13/11:30am N 8 13 - - - - - - - 16.4 1009.6 0.0
13/11:00am N 10 14 - - - - - - - 16.0 1009.8 0.0
13/10:30am N 11 15 - - - - - - - 14.5 1009.8 0.0
13/10:00am N 10 16 - - - - - - - 13.8 1009.9 0.0
13/09:30am N 11 15 - - - - - - - 13.2 1009.7 0.0
13/09:00am N 9 14 - - - - - - - 12.7 1009.6 2.0
13/08:30am N 9 13 - - - - - - - 12.2 1009.3 2.0
13/08:00am N 10 13 - - - - - - - 11.5 1009.2 2.0
13/07:30am N 9 13 - - - - - - - 11.3 1008.8 2.0
13/07:00am N 9 12 - - - - - - - 11.7 1008.6 2.0
13/06:30am N 9 14 - - - - - - - 11.8 1008.4 2.0
13/06:00am N 8 11 - - - - - - - 11.5 1008.1 2.0
13/05:30am N 6 10 - - - - - - - 11.2 1007.9 2.0
13/05:00am N 8 12 - - - - - - - 11.0 1007.7 2.0
13/04:30am NNW 8 11 - - - - - - - 11.0 1007.5 2.0
13/04:00am NNW 9 12 - - - - - - - 11.0 1007.3 2.0
13/03:30am NNW 9 11 - - - - - - - 11.2 1007.4 2.0
13/03:00am NNW 10 16 - - - - - - - 11.5 1007.3 2.0
13/02:30am NNW 10 15 - - - - - - - 11.7 1007.5 2.0
13/02:00am NNW 10 12 - - - - - - - 11.6 1007.7 2.0
13/01:30am NNW 8 12 - - - - - - - 11.7 1007.7 2.0
13/01:00am N 7 11 - - - - - - - 11.8 1007.6 2.0
13/12:30am N 8 11 - - - - - - - 11.9 1007.7 2.0
13/12:00am NNW 10 14 - - - - - - Rain 12.0 1007.4 1.8
 
Date/Time
EST
Wind Sea
Height
m
Swell Vis
km
Cloud Weather Temp
°C
Press
hPa
Rain since
9am
mm
Dir  Spd
kts
Gust
kts
Height
m
Period
s
Dir
12/11:30pm NNW 11 17 - - - - - - - 12.3 1007.2 1.2
12/11:00pm N 11 15 - - - - - - - 12.5 1007.2 1.0
12/10:30pm N 12 21 - - - - - - - 12.6 1007.2 1.0
12/10:00pm N 13 18 - - - - - - - 12.7 1007.3 1.0
12/09:30pm N 12 16 - - - - - - - 13.6 1007.1 0.2
12/09:00pm N 14 20 - - - - - - - 14.1 1006.9 0.0
12/08:30pm N 11 19 - - - - - - - 14.0 1006.8 0.0
12/08:00pm N 8 14 - - - - - - - 14.0 1006.6 0.0
12/07:30pm N 11 17 - - - - - - - 13.9 1006.3 0.0
12/07:00pm N 11 17 - - - - - - - 13.7 1006.0 0.0
12/06:30pm N 11 17 - - - - - - - 13.6 1005.8 0.0
12/06:00pm N 11 17 - - - - - - - 13.5 1005.5 0.0
12/05:30pm N 12 18 - - - - - - - 13.6 1005.4 0.0
12/05:00pm N 9 12 - - - - - - - 14.0 1005.2 0.0
12/04:30pm N 11 19 - - - - - - - 14.5 1005.0 0.0
12/04:00pm N 13 20 - - - - - - - 14.8 1004.8 0.0
12/03:30pm N 11 17 - - - - - - - 15.3 1005.2 0.0
12/03:00pm N 10 18 - - - - - - - 16.0 1005.2 0.0
12/02:30pm N 10 17 - - - - - - - 16.9 1005.2 0.0
12/02:00pm NNW 11 18 - - - - - - - 16.9 1005.4 0.0
12/01:30pm N 13 22 - - - - - - - 15.8 1005.4 0.0
12/01:00pm N 15 25 - - - - - - - 15.8 1005.6 0.0
12/12:52pm N 15 25 - - - - - - - 15.5 1005.6 0.0
12/12:30pm N 13 21 - - - - - - - 16.2 1005.9 0.0
12/12:00pm N 12 19 - - - - - - - 16.0 1006.2 0.0
12/11:45am N 15 27 - - - - - - - 15.2 1006.4 0.0
12/11:30am N 16 24 - - - - - - - 15.0 1006.6 0.0
12/11:00am N 10 20 - - - - - - - 14.8 1007.4 0.0
12/10:30am NNW 10 20 - - - - - - - 14.7 1007.7 0.0
12/10:00am NNE 7 14 - - - - - - - 14.4 1007.8 0.0
12/09:30am N 8 13 - - - - - - - 14.0 1008.0 0.0
12/09:00am N 10 16 - - - - - - - 13.2 1008.0 0.0
12/08:30am N 11 18 - - - - - - - 12.3 1008.1 0.0
12/08:00am N 15 21 - - - - - - - 12.0 1008.1 0.0
12/07:30am N 12 21 - - - - - - - 12.0 1008.2 0.0
12/07:00am N 13 21 - - - - - - - 12.0 1008.2 0.0
12/06:30am N 15 22 - - - - - - - 12.0 1008.0 0.0
12/06:00am N 14 26 - - - - - - - 11.9 1007.9 0.0
12/05:30am N 15 24 - - - - - - - 11.8 1007.9 0.0
12/05:07am N 15 25 - - - - - - - 11.6 1007.9 0.0
12/05:00am N 15 23 - - - - - - - 11.7 1007.9 0.0
12/04:30am N 12 20 - - - - - - - 11.7 1008.0 0.0
12/04:00am N 12 17 - - - - - - - 11.6 1008.3 0.0
12/03:30am NNE 8 15 - - - - - - - 11.3 1008.7 0.0
12/03:00am NE 7 13 - - - - - - - 11.0 1008.9 0.0
12/02:30am NE 9 12 - - - - - - - 10.6 1009.4 0.0
12/02:00am NE 8 13 - - - - - - - 10.7 1010.0 0.0
12/01:30am NNE 9 13 - - - - - - - 11.0 1010.4 0.0
12/01:00am NNE 11 16 - - - - - - - 11.3 1010.5 0.0
12/12:30am NNE 9 15 - - - - - - - 11.5 1010.7 0.0
12/12:00am N 11 18 - - - - - - - 11.5 1010.9 0.0

Other formats

Comma delimited format used in spreadsheet applications
http://www.bom.gov.au/fwo/IDV60701/IDV60701.94842.axf

JavaScript Object Notation format (JSON) in row-major order
http://www.bom.gov.au/fwo/IDV60701/IDV60701.94842.json

Data quality

Most of these data are generated automatically and are frequently updated. Quality checks on data are not normally performed. It is possible for incorrect values to appear. Refer to information at About Latest Weather Observations and please check the disclaimer before using these data.